sensor_id;sensor_type;location;lat;lon;timestamp;temperature;humidity
39875;DHT22;25547;52.530;13.194;2022-08-21T00:01:31;19.30;99.90
39875;DHT22;25547;52.530;13.194;2022-08-21T00:04:03;19.30;99.90
39875;DHT22;25547;52.530;13.194;2022-08-21T00:06:31;19.20;99.90
39875;DHT22;25547;52.530;13.194;2022-08-21T00:08:59;19.20;99.90
39875;DHT22;25547;52.530;13.194;2022-08-21T00:11:27;19.20;99.90
39875;DHT22;25547;52.530;13.194;2022-08-21T00:13:53;19.20;99.90
39875;DHT22;25547;52.530;13.194;2022-08-21T00:16:19;19.20;99.90
39875;DHT22;25547;52.530;13.194;2022-08-21T00:18:47;19.20;99.90
39875;DHT22;25547;52.530;13.194;2022-08-21T00:21:16;19.10;99.90
39875;DHT22;25547;52.530;13.194;2022-08-21T00:23:42;19.10;99.90
39875;DHT22;25547;52.530;13.194;2022-08-21T00:26:10;19.10;99.90
39875;DHT22;25547;52.530;13.194;2022-08-21T00:28:36;19.10;99.90
39875;DHT22;25547;52.530;13.194;2022-08-21T00:31:02;19.00;99.90
39875;DHT22;25547;52.530;13.194;2022-08-21T00:33:32;19.00;99.90
39875;DHT22;25547;52.530;13.194;2022-08-21T00:35:58;19.00;99.90
39875;DHT22;25547;52.530;13.194;2022-08-21T00:38:23;19.00;99.90
39875;DHT22;25547;52.530;13.194;2022-08-21T00:40:56;19.00;99.90
39875;DHT22;25547;52.530;13.194;2022-08-21T00:43:27;19.00;99.90
39875;DHT22;25547;52.530;13.194;2022-08-21T00:45:54;18.90;99.90
39875;DHT22;25547;52.530;13.194;2022-08-21T00:48:21;18.80;99.90
39875;DHT22;25547;52.530;13.194;2022-08-21T00:51:01;18.80;99.90
39875;DHT22;25547;52.530;13.194;2022-08-21T00:53:31;18.80;99.90
39875;DHT22;25547;52.530;13.194;2022-08-21T00:56:02;18.80;99.90
39875;DHT22;25547;52.530;13.194;2022-08-21T00:58:31;18.80;99.90
39875;DHT22;25547;52.530;13.194;2022-08-21T01:00:59;18.80;99.90
39875;DHT22;25547;52.530;13.194;2022-08-21T01:03:27;18.70;99.90
39875;DHT22;25547;52.530;13.194;2022-08-21T01:05:53;18.80;99.90
39875;DHT22;25547;52.530;13.194;2022-08-21T01:08:22;18.70;99.90
39875;DHT22;25547;52.530;13.194;2022-08-21T01:10:54;18.70;99.90
39875;DHT22;25547;52.530;13.194;2022-08-21T01:13:23;18.60;99.90
39875;DHT22;25547;52.530;13.194;2022-08-21T01:15:52;18.60;99.90
39875;DHT22;25547;52.530;13.194;2022-08-21T01:18:21;18.60;99.90
39875;DHT22;25547;52.530;13.194;2022-08-21T01:21:08;18.50;99.90
39875;DHT22;25547;52.530;13.194;2022-08-21T01:23:36;18.50;99.90
39875;DHT22;25547;52.530;13.194;2022-08-21T01:26:03;18.50;99.90
39875;DHT22;25547;52.530;13.194;2022-08-21T01:28:34;18.50;99.90
39875;DHT22;25547;52.530;13.194;2022-08-21T01:31:03;18.50;99.90
39875;DHT22;25547;52.530;13.194;2022-08-21T01:33:30;18.50;99.90
39875;DHT22;25547;52.530;13.194;2022-08-21T01:35:56;18.40;99.90
39875;DHT22;25547;52.530;13.194;2022-08-21T01:38:21;18.40;99.90
39875;DHT22;25547;52.530;13.194;2022-08-21T01:40:47;18.40;99.90
39875;DHT22;25547;52.530;13.194;2022-08-21T01:43:13;18.40;99.90
39875;DHT22;25547;52.530;13.194;2022-08-21T01:45:38;18.40;99.90
39875;DHT22;25547;52.530;13.194;2022-08-21T01:48:04;18.40;99.90
39875;DHT22;25547;52.530;13.194;2022-08-21T01:50:30;18.40;99.90
39875;DHT22;25547;52.530;13.194;2022-08-21T01:52:59;18.30;99.90
39875;DHT22;25547;52.530;13.194;2022-08-21T01:55:24;18.30;99.90
39875;DHT22;25547;52.530;13.194;2022-08-21T01:57:50;18.30;99.90
39875;DHT22;25547;52.530;13.194;2022-08-21T02:00:18;18.30;99.90
39875;DHT22;25547;52.530;13.194;2022-08-21T02:02:46;18.30;99.90
39875;DHT22;25547;52.530;13.194;2022-08-21T02:05:17;18.30;99.90
39875;DHT22;25547;52.530;13.194;2022-08-21T02:07:47;18.20;99.90
39875;DHT22;25547;52.530;13.194;2022-08-21T02:10:15;18.20;99.90
39875;DHT22;25547;52.530;13.194;2022-08-21T02:12:44;18.10;99.90
39875;DHT22;25547;52.530;13.194;2022-08-21T02:15:09;18.10;99.90
39875;DHT22;25547;52.530;13.194;2022-08-21T02:17:46;18.10;99.90
39875;DHT22;25547;52.530;13.194;2022-08-21T02:20:29;18.10;99.90
39875;DHT22;25547;52.530;13.194;2022-08-21T02:22:58;18.10;99.90
39875;DHT22;25547;52.530;13.194;2022-08-21T02:25:25;18.00;99.90
39875;DHT22;25547;52.530;13.194;2022-08-21T02:27:53;18.00;99.90
39875;DHT22;25547;52.530;13.194;2022-08-21T02:30:31;18.00;99.90
39875;DHT22;25547;52.530;13.194;2022-08-21T02:33:00;18.00;99.90
39875;DHT22;25547;52.530;13.194;2022-08-21T02:35:28;18.00;99.90
39875;DHT22;25547;52.530;13.194;2022-08-21T02:38:00;18.00;99.90
39875;DHT22;25547;52.530;13.194;2022-08-21T02:40:34;18.00;99.90
39875;DHT22;25547;52.530;13.194;2022-08-21T02:43:00;17.90;99.90
39875;DHT22;25547;52.530;13.194;2022-08-21T02:45:33;17.80;99.90
39875;DHT22;25547;52.530;13.194;2022-08-21T02:48:01;17.80;99.90
39875;DHT22;25547;52.530;13.194;2022-08-21T02:50:33;17.80;99.90
39875;DHT22;25547;52.530;13.194;2022-08-21T02:53:00;17.80;99.90
39875;DHT22;25547;52.530;13.194;2022-08-21T02:55:27;17.80;99.90
39875;DHT22;25547;52.530;13.194;2022-08-21T02:57:55;17.80;99.90
39875;DHT22;25547;52.530;13.194;2022-08-21T03:00:24;17.80;99.90
39875;DHT22;25547;52.530;13.194;2022-08-21T03:02:55;17.70;99.90
39875;DHT22;25547;52.530;13.194;2022-08-21T03:05:22;17.70;99.90
39875;DHT22;25547;52.530;13.194;2022-08-21T03:07:51;17.70;99.90
39875;DHT22;25547;52.530;13.194;2022-08-21T03:10:18;17.70;99.90
39875;DHT22;25547;52.530;13.194;2022-08-21T03:12:47;17.70;99.90
39875;DHT22;25547;52.530;13.194;2022-08-21T03:15:17;17.60;99.90
39875;DHT22;25547;52.530;13.194;2022-08-21T03:17:44;17.50;99.90
39875;DHT22;25547;52.530;13.194;2022-08-21T03:20:18;17.60;99.90
39875;DHT22;25547;52.530;13.194;2022-08-21T03:22:45;17.50;99.90
39875;DHT22;25547;52.530;13.194;2022-08-21T03:25:13;17.50;99.90
39875;DHT22;25547;52.530;13.194;2022-08-21T03:27:41;17.50;99.90
39875;DHT22;25547;52.530;13.194;2022-08-21T03:30:08;17.50;99.90
39875;DHT22;25547;52.530;13.194;2022-08-21T03:32:34;17.50;99.90
39875;DHT22;25547;52.530;13.194;2022-08-21T03:35:02;17.50;99.90
39875;DHT22;25547;52.530;13.194;2022-08-21T03:37:30;17.50;99.90
39875;DHT22;25547;52.530;13.194;2022-08-21T03:39:56;17.50;99.90
39875;DHT22;25547;52.530;13.194;2022-08-21T03:42:24;17.50;99.90
39875;DHT22;25547;52.530;13.194;2022-08-21T03:44:52;17.40;99.90
39875;DHT22;25547;52.530;13.194;2022-08-21T03:47:18;17.40;99.90
39875;DHT22;25547;52.530;13.194;2022-08-21T03:49:45;17.40;99.90
39875;DHT22;25547;52.530;13.194;2022-08-21T03:52:13;17.30;99.90
39875;DHT22;25547;52.530;13.194;2022-08-21T03:54:39;17.30;99.90
39875;DHT22;25547;52.530;13.194;2022-08-21T03:57:07;17.30;99.90
39875;DHT22;25547;52.530;13.194;2022-08-21T03:59:32;17.30;99.90
39875;DHT22;25547;52.530;13.194;2022-08-21T04:02:01;17.20;99.90
39875;DHT22;25547;52.530;13.194;2022-08-21T04:04:27;17.30;99.90
39875;DHT22;25547;52.530;13.194;2022-08-21T04:06:56;17.20;99.90
39875;DHT22;25547;52.530;13.194;2022-08-21T04:09:23;17.20;99.90
39875;DHT22;25547;52.530;13.194;2022-08-21T04:11:52;17.10;99.90
39875;DHT22;25547;52.530;13.194;2022-08-21T04:14:18;17.10;99.90
39875;DHT22;25547;52.530;13.194;2022-08-21T04:16:44;17.10;99.90
39875;DHT22;25547;52.530;13.194;2022-08-21T04:19:10;17.10;99.90
39875;DHT22;25547;52.530;13.194;2022-08-21T04:21:37;17.10;99.90
39875;DHT22;25547;52.530;13.194;2022-08-21T04:24:07;17.00;99.90
39875;DHT22;25547;52.530;13.194;2022-08-21T04:26:37;17.10;99.90
39875;DHT22;25547;52.530;13.194;2022-08-21T04:29:04;17.10;99.90
39875;DHT22;25547;52.530;13.194;2022-08-21T04:31:35;17.00;99.90
39875;DHT22;25547;52.530;13.194;2022-08-21T04:34:05;17.00;99.90
39875;DHT22;25547;52.530;13.194;2022-08-21T04:36:32;17.10;99.90
39875;DHT22;25547;52.530;13.194;2022-08-21T04:38:58;17.10;99.90
39875;DHT22;25547;52.530;13.194;2022-08-21T04:41:24;17.10;99.90
39875;DHT22;25547;52.530;13.194;2022-08-21T04:43:50;17.10;99.90
39875;DHT22;25547;52.530;13.194;2022-08-21T04:46:18;17.00;99.90
39875;DHT22;25547;52.530;13.194;2022-08-21T04:48:44;17.10;99.90
39875;DHT22;25547;52.530;13.194;2022-08-21T04:51:31;17.00;99.90
39875;DHT22;25547;52.530;13.194;2022-08-21T04:54:02;17.00;99.90
39875;DHT22;25547;52.530;13.194;2022-08-21T04:56:35;17.10;99.90
39875;DHT22;25547;52.530;13.194;2022-08-21T04:59:06;17.10;99.90
39875;DHT22;25547;52.530;13.194;2022-08-21T05:01:36;17.10;99.90
39875;DHT22;25547;52.530;13.194;2022-08-21T05:04:05;17.00;99.90
39875;DHT22;25547;52.530;13.194;2022-08-21T05:06:35;17.10;99.90
39875;DHT22;25547;52.530;13.194;2022-08-21T05:09:03;17.10;99.90
39875;DHT22;25547;52.530;13.194;2022-08-21T05:11:32;17.10;99.90
39875;DHT22;25547;52.530;13.194;2022-08-21T05:13:58;17.20;99.90
39875;DHT22;25547;52.530;13.194;2022-08-21T05:16:24;17.20;99.90
39875;DHT22;25547;52.530;13.194;2022-08-21T05:18:54;17.10;99.90
39875;DHT22;25547;52.530;13.194;2022-08-21T05:21:22;17.20;99.90
39875;DHT22;25547;52.530;13.194;2022-08-21T05:23:53;17.20;99.90
39875;DHT22;25547;52.530;13.194;2022-08-21T05:26:18;17.20;99.90
39875;DHT22;25547;52.530;13.194;2022-08-21T05:28:44;17.20;99.90
39875;DHT22;25547;52.530;13.194;2022-08-21T05:31:10;17.30;99.90
39875;DHT22;25547;52.530;13.194;2022-08-21T05:33:35;17.30;99.90
39875;DHT22;25547;52.530;13.194;2022-08-21T05:36:01;17.30;99.90
39875;DHT22;25547;52.530;13.194;2022-08-21T05:38:27;17.30;99.90
39875;DHT22;25547;52.530;13.194;2022-08-21T05:40:56;17.30;99.90
39875;DHT22;25547;52.530;13.194;2022-08-21T05:43:21;17.30;99.90
39875;DHT22;25547;52.530;13.194;2022-08-21T05:45:47;17.40;99.90
39875;DHT22;25547;52.530;13.194;2022-08-21T05:48:20;17.40;99.90
39875;DHT22;25547;52.530;13.194;2022-08-21T05:50:47;17.50;99.90
39875;DHT22;25547;52.530;13.194;2022-08-21T05:53:14;17.60;99.90
39875;DHT22;25547;52.530;13.194;2022-08-21T05:55:41;17.70;99.90
39875;DHT22;25547;52.530;13.194;2022-08-21T05:58:08;17.70;99.90
39875;DHT22;25547;52.530;13.194;2022-08-21T06:00:37;17.70;99.90
39875;DHT22;25547;52.530;13.194;2022-08-21T06:03:02;17.80;99.90
39875;DHT22;25547;52.530;13.194;2022-08-21T06:05:29;17.80;99.90
39875;DHT22;25547;52.530;13.194;2022-08-21T06:07:57;17.80;99.90
39875;DHT22;25547;52.530;13.194;2022-08-21T06:10:22;17.80;99.90
39875;DHT22;25547;52.530;13.194;2022-08-21T06:12:53;17.90;99.90
39875;DHT22;25547;52.530;13.194;2022-08-21T06:15:19;17.90;99.90
39875;DHT22;25547;52.530;13.194;2022-08-21T06:17:45;18.00;99.90
39875;DHT22;25547;52.530;13.194;2022-08-21T06:20:13;18.00;99.90
39875;DHT22;25547;52.530;13.194;2022-08-21T06:22:38;18.00;99.90
39875;DHT22;25547;52.530;13.194;2022-08-21T06:25:05;18.10;99.90
39875;DHT22;25547;52.530;13.194;2022-08-21T06:27:30;18.20;99.90
39875;DHT22;25547;52.530;13.194;2022-08-21T06:29:58;18.20;99.90
39875;DHT22;25547;52.530;13.194;2022-08-21T06:32:26;18.20;99.90
39875;DHT22;25547;52.530;13.194;2022-08-21T06:34:51;18.20;99.90
39875;DHT22;25547;52.530;13.194;2022-08-21T06:37:17;18.30;99.90
39875;DHT22;25547;52.530;13.194;2022-08-21T06:39:43;18.40;99.90
39875;DHT22;25547;52.530;13.194;2022-08-21T06:42:16;18.40;99.90
39875;DHT22;25547;52.530;13.194;2022-08-21T06:44:43;18.50;99.90
39875;DHT22;25547;52.530;13.194;2022-08-21T06:47:11;18.50;99.90
39875;DHT22;25547;52.530;13.194;2022-08-21T06:49:39;18.60;99.90
39875;DHT22;25547;52.530;13.194;2022-08-21T06:52:09;18.50;99.90
39875;DHT22;25547;52.530;13.194;2022-08-21T06:54:38;18.70;99.90
39875;DHT22;25547;52.530;13.194;2022-08-21T06:57:04;18.80;99.90
39875;DHT22;25547;52.530;13.194;2022-08-21T06:59:32;19.00;99.90
39875;DHT22;25547;52.530;13.194;2022-08-21T07:01:59;19.10;99.90
39875;DHT22;25547;52.530;13.194;2022-08-21T07:04:29;19.20;99.90
39875;DHT22;25547;52.530;13.194;2022-08-21T07:06:55;19.30;99.90
39875;DHT22;25547;52.530;13.194;2022-08-21T07:09:21;19.60;99.90
39875;DHT22;25547;52.530;13.194;2022-08-21T07:11:50;19.90;99.90
39875;DHT22;25547;52.530;13.194;2022-08-21T07:14:16;20.10;99.90
39875;DHT22;25547;52.530;13.194;2022-08-21T07:16:42;20.60;99.90
39875;DHT22;25547;52.530;13.194;2022-08-21T07:19:07;21.40;99.90
39875;DHT22;25547;52.530;13.194;2022-08-21T07:21:33;22.00;99.90
39875;DHT22;25547;52.530;13.194;2022-08-21T07:24:01;21.90;99.90
39875;DHT22;25547;52.530;13.194;2022-08-21T07:26:26;21.70;99.90
39875;DHT22;25547;52.530;13.194;2022-08-21T07:28:52;21.50;99.90
39875;DHT22;25547;52.530;13.194;2022-08-21T07:31:20;21.70;99.90
39875;DHT22;25547;52.530;13.194;2022-08-21T07:33:46;21.50;99.90
39875;DHT22;25547;52.530;13.194;2022-08-21T07:36:12;21.30;99.90
39875;DHT22;25547;52.530;13.194;2022-08-21T07:38:41;21.10;99.90
39875;DHT22;25547;52.530;13.194;2022-08-21T07:41:19;21.10;99.90
39875;DHT22;25547;52.530;13.194;2022-08-21T07:43:45;20.90;99.90
39875;DHT22;25547;52.530;13.194;2022-08-21T07:46:13;20.90;99.90
39875;DHT22;25547;52.530;13.194;2022-08-21T07:48:41;20.70;99.90
39875;DHT22;25547;52.530;13.194;2022-08-21T07:51:11;20.90;99.90
39875;DHT22;25547;52.530;13.194;2022-08-21T07:53:37;21.20;99.90
39875;DHT22;25547;52.530;13.194;2022-08-21T07:56:06;22.20;99.90
39875;DHT22;25547;52.530;13.194;2022-08-21T07:58:33;23.30;96.30
39875;DHT22;25547;52.530;13.194;2022-08-21T08:00:59;24.40;92.50
39875;DHT22;25547;52.530;13.194;2022-08-21T08:03:25;25.90;86.70
39875;DHT22;25547;52.530;13.194;2022-08-21T08:05:51;26.60;81.70
39875;DHT22;25547;52.530;13.194;2022-08-21T08:08:17;27.30;75.40
39875;DHT22;25547;52.530;13.194;2022-08-21T08:10:43;27.10;74.50
39875;DHT22;25547;52.530;13.194;2022-08-21T08:13:09;27.20;74.20
39875;DHT22;25547;52.530;13.194;2022-08-21T08:15:36;27.70;72.40
39875;DHT22;25547;52.530;13.194;2022-08-21T08:18:04;27.60;71.20
39875;DHT22;25547;52.530;13.194;2022-08-21T08:20:29;27.70;68.70
39875;DHT22;25547;52.530;13.194;2022-08-21T08:23:00;28.00;68.10
39875;DHT22;25547;52.530;13.194;2022-08-21T08:25:27;28.40;67.70
39875;DHT22;25547;52.530;13.194;2022-08-21T08:27:53;29.20;63.70
39875;DHT22;25547;52.530;13.194;2022-08-21T08:30:21;29.30;63.60
39875;DHT22;25547;52.530;13.194;2022-08-21T08:32:49;28.90;62.30
39875;DHT22;25547;52.530;13.194;2022-08-21T08:35:17;28.20;62.60
39875;DHT22;25547;52.530;13.194;2022-08-21T08:37:46;27.70;65.20
39875;DHT22;25547;52.530;13.194;2022-08-21T08:40:20;27.60;64.90
39875;DHT22;25547;52.530;13.194;2022-08-21T08:42:47;27.80;62.10
39875;DHT22;25547;52.530;13.194;2022-08-21T08:45:20;27.40;63.80
39875;DHT22;25547;52.530;13.194;2022-08-21T08:47:52;26.60;65.80
39875;DHT22;25547;52.530;13.194;2022-08-21T08:50:44;25.00;69.10
39875;DHT22;25547;52.530;13.194;2022-08-21T08:53:23;24.60;72.40
39875;DHT22;25547;52.530;13.194;2022-08-21T08:55:52;24.80;71.20
39875;DHT22;25547;52.530;13.194;2022-08-21T08:58:29;25.00;69.90
39875;DHT22;25547;52.530;13.194;2022-08-21T09:01:01;24.60;73.00
39875;DHT22;25547;52.530;13.194;2022-08-21T09:03:27;24.30;71.70
39875;DHT22;25547;52.530;13.194;2022-08-21T09:14:21;23.20;79.10
39875;DHT22;25547;52.530;13.194;2022-08-21T09:17:02;23.30;78.40
39875;DHT22;25547;52.530;13.194;2022-08-21T09:27:45;23.10;78.40
39875;DHT22;25547;52.530;13.194;2022-08-21T09:30:11;22.60;75.60
39875;DHT22;25547;52.530;13.194;2022-08-21T09:32:38;22.20;77.20
39875;DHT22;25547;52.530;13.194;2022-08-21T09:35:16;22.10;78.00
39875;DHT22;25547;52.530;13.194;2022-08-21T09:43:21;22.50;78.10
39875;DHT22;25547;52.530;13.194;2022-08-21T09:45:49;22.70;76.60
39875;DHT22;25547;52.530;13.194;2022-08-21T09:48:28;22.70;79.10
39875;DHT22;25547;52.530;13.194;2022-08-21T09:51:10;22.60;78.90
39875;DHT22;25547;52.530;13.194;2022-08-21T09:53:42;22.70;78.60
39875;DHT22;25547;52.530;13.194;2022-08-21T09:56:29;22.50;78.20
39875;DHT22;25547;52.530;13.194;2022-08-21T09:59:35;22.50;79.20
39875;DHT22;25547;52.530;13.194;2022-08-21T10:02:28;22.50;75.90
39875;DHT22;25547;52.530;13.194;2022-08-21T10:05:08;22.50;76.50
39875;DHT22;25547;52.530;13.194;2022-08-21T10:07:37;22.50;76.50
39875;DHT22;25547;52.530;13.194;2022-08-21T10:10:14;22.60;76.10
39875;DHT22;25547;52.530;13.194;2022-08-21T10:13:03;22.50;74.80
39875;DHT22;25547;52.530;13.194;2022-08-21T10:32:24;23.00;75.20
39875;DHT22;25547;52.530;13.194;2022-08-21T10:35:36;23.10;75.60
39875;DHT22;25547;52.530;13.194;2022-08-21T10:43:39;22.60;70.70
39875;DHT22;25547;52.530;13.194;2022-08-21T10:48:42;22.60;73.40
39875;DHT22;25547;52.530;13.194;2022-08-21T10:54:16;22.70;71.60
39875;DHT22;25547;52.530;13.194;2022-08-21T10:56:43;22.80;68.80
39875;DHT22;25547;52.530;13.194;2022-08-21T10:59:31;22.90;69.60
39875;DHT22;25547;52.530;13.194;2022-08-21T11:04:36;23.40;68.40
39875;DHT22;25547;52.530;13.194;2022-08-21T11:07:30;23.30;68.30
39875;DHT22;25547;52.530;13.194;2022-08-21T11:10:05;23.20;69.80
39875;DHT22;25547;52.530;13.194;2022-08-21T11:12:59;23.00;68.00
39875;DHT22;25547;52.530;13.194;2022-08-21T11:15:45;22.90;69.50
39875;DHT22;25547;52.530;13.194;2022-08-21T11:18:36;22.80;66.10
39875;DHT22;25547;52.530;13.194;2022-08-21T11:21:13;22.80;67.80
39875;DHT22;25547;52.530;13.194;2022-08-21T11:26:49;22.80;67.00
39875;DHT22;25547;52.530;13.194;2022-08-21T11:29:27;22.60;68.40
39875;DHT22;25547;52.530;13.194;2022-08-21T11:32:06;22.60;70.30
39875;DHT22;25547;52.530;13.194;2022-08-21T11:41:00;22.80;70.60
39875;DHT22;25547;52.530;13.194;2022-08-21T11:43:07;22.90;71.90
39875;DHT22;25547;52.530;13.194;2022-08-21T11:51:19;22.90;71.50
39875;DHT22;25547;52.530;13.194;2022-08-21T11:54:03;23.00;69.30
39875;DHT22;25547;52.530;13.194;2022-08-21T11:56:37;23.10;69.70
39875;DHT22;25547;52.530;13.194;2022-08-21T11:59:11;23.20;70.00
39875;DHT22;25547;52.530;13.194;2022-08-21T12:01:43;23.30;68.30
39875;DHT22;25547;52.530;13.194;2022-08-21T12:06:52;23.50;67.10
39875;DHT22;25547;52.530;13.194;2022-08-21T12:12:00;23.60;67.70
39875;DHT22;25547;52.530;13.194;2022-08-21T12:14:45;23.60;68.20
39875;DHT22;25547;52.530;13.194;2022-08-21T12:17:36;23.60;66.00
39875;DHT22;25547;52.530;13.194;2022-08-21T12:20:32;23.40;67.40
39875;DHT22;25547;52.530;13.194;2022-08-21T12:25:40;23.20;68.10
39875;DHT22;25547;52.530;13.194;2022-08-21T12:28:09;23.20;69.00
39875;DHT22;25547;52.530;13.194;2022-08-21T12:30:39;23.20;69.10
39875;DHT22;25547;52.530;13.194;2022-08-21T12:36:23;23.10;69.00
39875;DHT22;25547;52.530;13.194;2022-08-21T12:38:57;23.00;69.20
39875;DHT22;25547;52.530;13.194;2022-08-21T12:41:32;23.00;69.40
39875;DHT22;25547;52.530;13.194;2022-08-21T12:44:08;23.10;70.90
39875;DHT22;25547;52.530;13.194;2022-08-21T12:46:39;23.20;68.70
39875;DHT22;25547;52.530;13.194;2022-08-21T12:49:34;23.20;69.00
39875;DHT22;25547;52.530;13.194;2022-08-21T12:52:20;23.20;70.80
39875;DHT22;25547;52.530;13.194;2022-08-21T12:54:46;23.10;70.20
39875;DHT22;25547;52.530;13.194;2022-08-21T12:57:29;23.00;71.10
39875;DHT22;25547;52.530;13.194;2022-08-21T12:59:58;22.90;72.00
39875;DHT22;25547;52.530;13.194;2022-08-21T13:02:32;22.90;70.40
39875;DHT22;25547;52.530;13.194;2022-08-21T13:05:03;22.90;71.50
39875;DHT22;25547;52.530;13.194;2022-08-21T13:07:32;23.00;70.20
39875;DHT22;25547;52.530;13.194;2022-08-21T13:10:07;23.00;72.30
39875;DHT22;25547;52.530;13.194;2022-08-21T13:12:41;23.10;70.70
39875;DHT22;25547;52.530;13.194;2022-08-21T13:15:07;23.00;70.50
39875;DHT22;25547;52.530;13.194;2022-08-21T13:17:36;22.90;70.50
39875;DHT22;25547;52.530;13.194;2022-08-21T13:20:07;22.80;70.70
39875;DHT22;25547;52.530;13.194;2022-08-21T13:22:41;22.70;70.30
39875;DHT22;25547;52.530;13.194;2022-08-21T13:25:16;22.60;71.80
39875;DHT22;25547;52.530;13.194;2022-08-21T13:28:00;22.70;72.60
39875;DHT22;25547;52.530;13.194;2022-08-21T13:30:26;22.80;72.60
39875;DHT22;25547;52.530;13.194;2022-08-21T13:33:00;22.80;71.70
39875;DHT22;25547;52.530;13.194;2022-08-21T13:38:25;23.20;71.70
39875;DHT22;25547;52.530;13.194;2022-08-21T13:40:54;23.50;68.30
39875;DHT22;25547;52.530;13.194;2022-08-21T13:43:26;23.70;69.50
39875;DHT22;25547;52.530;13.194;2022-08-21T13:45:56;23.70;66.90
39875;DHT22;25547;52.530;13.194;2022-08-21T13:48:24;23.70;67.70
39875;DHT22;25547;52.530;13.194;2022-08-21T13:50:54;23.80;66.70
39875;DHT22;25547;52.530;13.194;2022-08-21T13:53:30;23.60;66.70
39875;DHT22;25547;52.530;13.194;2022-08-21T13:55:57;23.60;67.70
39875;DHT22;25547;52.530;13.194;2022-08-21T13:58:32;23.60;66.90
39875;DHT22;25547;52.530;13.194;2022-08-21T14:01:01;23.50;67.90
39875;DHT22;25547;52.530;13.194;2022-08-21T14:05:59;23.40;69.30
39875;DHT22;25547;52.530;13.194;2022-08-21T14:08:37;23.40;72.50
39875;DHT22;25547;52.530;13.194;2022-08-21T14:11:05;23.50;73.80
39875;DHT22;25547;52.530;13.194;2022-08-21T14:13:46;23.50;69.70
39875;DHT22;25547;52.530;13.194;2022-08-21T14:16:17;23.40;69.30
39875;DHT22;25547;52.530;13.194;2022-08-21T14:18:53;23.30;69.90
39875;DHT22;25547;52.530;13.194;2022-08-21T14:21:34;23.40;69.90
39875;DHT22;25547;52.530;13.194;2022-08-21T14:24:24;23.30;68.50
39875;DHT22;25547;52.530;13.194;2022-08-21T14:27:03;23.40;69.30
39875;DHT22;25547;52.530;13.194;2022-08-21T14:29:39;23.40;69.00
39875;DHT22;25547;52.530;13.194;2022-08-21T14:32:20;23.30;69.30
39875;DHT22;25547;52.530;13.194;2022-08-21T14:34:46;23.20;70.20
39875;DHT22;25547;52.530;13.194;2022-08-21T14:37:11;23.20;69.30
39875;DHT22;25547;52.530;13.194;2022-08-21T14:39:39;23.20;69.60
39875;DHT22;25547;52.530;13.194;2022-08-21T14:42:05;23.20;69.50
39875;DHT22;25547;52.530;13.194;2022-08-21T14:44:31;23.20;69.70
39875;DHT22;25547;52.530;13.194;2022-08-21T14:46:58;23.20;70.70
39875;DHT22;25547;52.530;13.194;2022-08-21T14:49:26;23.20;69.20
39875;DHT22;25547;52.530;13.194;2022-08-21T14:51:53;23.30;69.90
39875;DHT22;25547;52.530;13.194;2022-08-21T14:54:27;23.30;69.60
39875;DHT22;25547;52.530;13.194;2022-08-21T14:56:52;23.30;68.80
39875;DHT22;25547;52.530;13.194;2022-08-21T14:59:21;23.30;69.30
39875;DHT22;25547;52.530;13.194;2022-08-21T15:01:47;23.30;69.20
39875;DHT22;25547;52.530;13.194;2022-08-21T15:04:15;23.30;69.60
39875;DHT22;25547;52.530;13.194;2022-08-21T15:06:43;23.30;69.50
39875;DHT22;25547;52.530;13.194;2022-08-21T15:09:09;23.30;69.80
39875;DHT22;25547;52.530;13.194;2022-08-21T15:11:34;23.30;69.90
39875;DHT22;25547;52.530;13.194;2022-08-21T15:14:07;23.30;70.10
39875;DHT22;25547;52.530;13.194;2022-08-21T15:16:33;23.30;71.10
39875;DHT22;25547;52.530;13.194;2022-08-21T15:18:59;23.20;69.60
39875;DHT22;25547;52.530;13.194;2022-08-21T15:21:27;23.20;69.70
39875;DHT22;25547;52.530;13.194;2022-08-21T15:23:53;23.20;70.70
39875;DHT22;25547;52.530;13.194;2022-08-21T15:26:21;23.30;70.40
39875;DHT22;25547;52.530;13.194;2022-08-21T15:28:47;23.30;69.30
39875;DHT22;25547;52.530;13.194;2022-08-21T15:31:17;23.30;69.90
39875;DHT22;25547;52.530;13.194;2022-08-21T15:33:43;23.30;70.00
39875;DHT22;25547;52.530;13.194;2022-08-21T15:36:09;23.20;70.70
39875;DHT22;25547;52.530;13.194;2022-08-21T15:38:34;23.20;69.80
39875;DHT22;25547;52.530;13.194;2022-08-21T15:41:02;23.20;69.80
39875;DHT22;25547;52.530;13.194;2022-08-21T15:43:33;23.20;68.70
39875;DHT22;25547;52.530;13.194;2022-08-21T15:46:00;23.10;70.00
39875;DHT22;25547;52.530;13.194;2022-08-21T15:48:27;23.10;70.90
39875;DHT22;25547;52.530;13.194;2022-08-21T15:50:53;23.10;70.80
39875;DHT22;25547;52.530;13.194;2022-08-21T15:53:18;23.20;71.30
39875;DHT22;25547;52.530;13.194;2022-08-21T15:55:44;23.20;70.70
39875;DHT22;25547;52.530;13.194;2022-08-21T15:58:15;23.10;69.90
39875;DHT22;25547;52.530;13.194;2022-08-21T16:00:41;23.10;70.90
39875;DHT22;25547;52.530;13.194;2022-08-21T16:03:12;23.10;70.90
39875;DHT22;25547;52.530;13.194;2022-08-21T16:05:39;23.00;70.60
39875;DHT22;25547;52.530;13.194;2022-08-21T16:08:07;23.00;70.60
39875;DHT22;25547;52.530;13.194;2022-08-21T16:10:36;23.00;71.70
39875;DHT22;25547;52.530;13.194;2022-08-21T16:13:05;23.00;70.70
39875;DHT22;25547;52.530;13.194;2022-08-21T16:15:32;23.10;72.40
39875;DHT22;25547;52.530;13.194;2022-08-21T16:17:58;23.10;71.10
39875;DHT22;25547;52.530;13.194;2022-08-21T16:20:26;23.10;70.00
39875;DHT22;25547;52.530;13.194;2022-08-21T16:22:55;23.00;69.40
39875;DHT22;25547;52.530;13.194;2022-08-21T16:25:21;23.00;69.60
39875;DHT22;25547;52.530;13.194;2022-08-21T16:27:55;23.00;70.10
39875;DHT22;25547;52.530;13.194;2022-08-21T16:30:25;23.00;70.50
39875;DHT22;25547;52.530;13.194;2022-08-21T16:32:53;23.00;70.30
39875;DHT22;25547;52.530;13.194;2022-08-21T16:35:21;23.00;70.70
39875;DHT22;25547;52.530;13.194;2022-08-21T16:37:47;23.00;71.10
39875;DHT22;25547;52.530;13.194;2022-08-21T16:40:14;22.90;71.10
39875;DHT22;25547;52.530;13.194;2022-08-21T16:42:43;23.00;71.40
39875;DHT22;25547;52.530;13.194;2022-08-21T16:45:16;22.90;70.90
39875;DHT22;25547;52.530;13.194;2022-08-21T16:47:43;22.90;71.00
39875;DHT22;25547;52.530;13.194;2022-08-21T16:50:20;22.90;70.20
39875;DHT22;25547;52.530;13.194;2022-08-21T16:52:49;22.90;70.40
39875;DHT22;25547;52.530;13.194;2022-08-21T16:55:17;22.90;70.30
39875;DHT22;25547;52.530;13.194;2022-08-21T16:57:43;22.80;69.50